アダック島 の空港の天気 - METARとTAF

アダック空港 ( PADK / ADK ) - アメリカ アラスカ州アダック島
飛行場実況気象(Metar)
観測時間05/28 02:13 AKDT (05/28 10:13 UTC)
風向・風速北東 5m/s
視程-
天気現象
全天を覆う雲 雲底高度 240m
気温6℃
湿度87%
気圧1021hPa
METARPADK 281013Z AUTO 04010KT OVC008 06/04 A3016 RMK AO2 PWINO
過去の天気等 Google飛行場航空写真 Wunderground天気予報

過去48時間のMETAR

飛行場予報(TAF)
データがありません